sensor_id;sensor_type;location;lat;lon;timestamp;pressure;altitude;pressure_sealevel;temperature;humidity
48968;BME280;46511;53.148;8.204;2023-05-19T00:00:37;102883.59;;;9.42;100.00
48968;BME280;46511;53.148;8.204;2023-05-19T00:03:08;102881.09;;;9.34;100.00
48968;BME280;46511;53.148;8.204;2023-05-19T00:05:41;102883.75;;;9.34;100.00
48968;BME280;46511;53.148;8.204;2023-05-19T00:08:15;102889.22;;;9.24;100.00
48968;BME280;46511;53.148;8.204;2023-05-19T00:10:42;102885.81;;;9.17;100.00
48968;BME280;46511;53.148;8.204;2023-05-19T00:13:14;102892.13;;;9.10;100.00
48968;BME280;46511;53.148;8.204;2023-05-19T00:15:45;102892.16;;;9.07;100.00
48968;BME280;46511;53.148;8.204;2023-05-19T00:18:17;102885.22;;;9.00;100.00
48968;BME280;46511;53.148;8.204;2023-05-19T00:20:48;102888.00;;;8.91;100.00
48968;BME280;46511;53.148;8.204;2023-05-19T00:23:22;102891.66;;;8.85;100.00
48968;BME280;46511;53.148;8.204;2023-05-19T00:25:53;102898.03;;;8.73;100.00
48968;BME280;46511;53.148;8.204;2023-05-19T00:28:25;102890.19;;;8.66;100.00
48968;BME280;46511;53.148;8.204;2023-05-19T00:30:56;102892.09;;;8.56;100.00
48968;BME280;46511;53.148;8.204;2023-05-19T00:33:27;102889.41;;;8.59;100.00
48968;BME280;46511;53.148;8.204;2023-05-19T00:35:59;102890.34;;;8.55;100.00
48968;BME280;46511;53.148;8.204;2023-05-19T00:38:33;102882.41;;;8.55;100.00
48968;BME280;46511;53.148;8.204;2023-05-19T00:41:06;102880.59;;;8.57;100.00
48968;BME280;46511;53.148;8.204;2023-05-19T00:43:37;102869.97;;;8.58;100.00
48968;BME280;46511;53.148;8.204;2023-05-19T00:46:08;102874.31;;;8.64;100.00
48968;BME280;46511;53.148;8.204;2023-05-19T00:48:40;102877.81;;;8.66;100.00
48968;BME280;46511;53.148;8.204;2023-05-19T00:51:14;102863.81;;;8.58;100.00
48968;BME280;46511;53.148;8.204;2023-05-19T00:53:46;102873.63;;;8.53;100.00
48968;BME280;46511;53.148;8.204;2023-05-19T00:56:20;102871.84;;;8.52;100.00
48968;BME280;46511;53.148;8.204;2023-05-19T00:58:52;102863.94;;;8.49;100.00
48968;BME280;46511;53.148;8.204;2023-05-19T01:01:24;102869.03;;;8.61;100.00
48968;BME280;46511;53.148;8.204;2023-05-19T01:03:56;102871.75;;;8.58;100.00
48968;BME280;46511;53.148;8.204;2023-05-19T01:06:28;102871.84;;;8.52;100.00
48968;BME280;46511;53.148;8.204;2023-05-19T01:09:00;102868.41;;;8.47;100.00
48968;BME280;46511;53.148;8.204;2023-05-19T01:11:31;102868.41;;;8.47;100.00
48968;BME280;46511;53.148;8.204;2023-05-19T01:14:02;102865.91;;;8.31;100.00
48968;BME280;46511;53.148;8.204;2023-05-19T01:16:39;102862.41;;;8.31;100.00
48968;BME280;46511;53.148;8.204;2023-05-19T01:19:38;102858.84;;;8.37;100.00
48968;BME280;46511;53.148;8.204;2023-05-19T01:25:44;102857.22;;;8.25;100.00
48968;BME280;46511;53.148;8.204;2023-05-19T01:29:06;102852.69;;;8.31;100.00
48968;BME280;46511;53.148;8.204;2023-05-19T01:31:24;102855.47;;;8.22;100.00
48968;BME280;46511;53.148;8.204;2023-05-19T01:33:56;102848.59;;;8.09;100.00
48968;BME280;46511;53.148;8.204;2023-05-19T01:36:30;102850.44;;;8.02;100.00
48968;BME280;46511;53.148;8.204;2023-05-19T01:39:02;102856.66;;;8.00;100.00
48968;BME280;46511;53.148;8.204;2023-05-19T01:41:33;102860.19;;;7.99;100.00
48968;BME280;46511;53.148;8.204;2023-05-19T01:44:05;102856.72;;;7.94;100.00
48968;BME280;46511;53.148;8.204;2023-05-19T01:46:37;102856.81;;;7.88;100.00
48968;BME280;46511;53.148;8.204;2023-05-19T01:49:09;102858.56;;;7.86;100.00
48968;BME280;46511;53.148;8.204;2023-05-19T01:51:41;102861.13;;;7.93;100.00
48968;BME280;46511;53.148;8.204;2023-05-19T01:54:12;102868.16;;;7.97;100.00
48968;BME280;46511;53.148;8.204;2023-05-19T01:57:28;102865.53;;;7.96;100.00
48968;BME280;46511;53.148;8.204;2023-05-19T01:59:43;102866.41;;;7.96;100.00
48968;BME280;46511;53.148;8.204;2023-05-19T02:05:13;102867.22;;;8.00;100.00
48968;BME280;46511;53.148;8.204;2023-05-19T02:07:57;102869.78;;;8.08;100.00
48968;BME280;46511;53.148;8.204;2023-05-19T02:10:40;102865.31;;;8.11;100.00
48968;BME280;46511;53.148;8.204;2023-05-19T02:13:13;102870.66;;;8.08;100.00
48968;BME280;46511;53.148;8.204;2023-05-19T02:15:50;102869.69;;;8.14;100.00
48968;BME280;46511;53.148;8.204;2023-05-19T02:18:24;102868.75;;;8.19;100.00
48968;BME280;46511;53.148;8.204;2023-05-19T02:21:00;102877.53;;;8.21;100.00
48968;BME280;46511;53.148;8.204;2023-05-19T02:23:31;102876.53;;;8.30;100.00
48968;BME280;46511;53.148;8.204;2023-05-19T02:26:03;102872.13;;;8.30;100.00
48968;BME280;46511;53.148;8.204;2023-05-19T02:28:34;102861.47;;;8.34;100.00
48968;BME280;46511;53.148;8.204;2023-05-19T02:31:06;102860.63;;;8.31;100.00
48968;BME280;46511;53.148;8.204;2023-05-19T02:33:39;102858.09;;;8.25;100.00
48968;BME280;46511;53.148;8.204;2023-05-19T02:36:12;102861.56;;;8.27;100.00
48968;BME280;46511;53.148;8.204;2023-05-19T02:38:44;102868.56;;;8.35;100.00
48968;BME280;46511;53.148;8.204;2023-05-19T02:41:16;102861.53;;;8.30;100.00
48968;BME280;46511;53.148;8.204;2023-05-19T02:43:47;102856.34;;;8.24;100.00
48968;BME280;46511;53.148;8.204;2023-05-19T02:46:18;102859.91;;;8.20;100.00
48968;BME280;46511;53.148;8.204;2023-05-19T02:48:45;102858.09;;;8.22;100.00
48968;BME280;46511;53.148;8.204;2023-05-19T02:51:16;102861.69;;;8.18;100.00
48968;BME280;46511;53.148;8.204;2023-05-19T02:53:47;102853.78;;;8.17;100.00
48968;BME280;46511;53.148;8.204;2023-05-19T02:56:19;102849.38;;;8.17;100.00
48968;BME280;46511;53.148;8.204;2023-05-19T02:58:51;102844.09;;;8.14;100.00
48968;BME280;46511;53.148;8.204;2023-05-19T03:01:23;102851.13;;;8.18;100.00
48968;BME280;46511;53.148;8.204;2023-05-19T03:03:54;102849.31;;;8.20;100.00
48968;BME280;46511;53.148;8.204;2023-05-19T03:06:26;102849.31;;;8.20;100.00
48968;BME280;46511;53.148;8.204;2023-05-19T03:08:57;102845.75;;;8.21;100.00
48968;BME280;46511;53.148;8.204;2023-05-19T03:11:28;102836.91;;;8.25;100.00
48968;BME280;46511;53.148;8.204;2023-05-19T03:14:00;102843.97;;;8.23;100.00
48968;BME280;46511;53.148;8.204;2023-05-19T03:16:32;102836.91;;;8.22;100.00
48968;BME280;46511;53.148;8.204;2023-05-19T03:19:03;102833.44;;;8.20;100.00
48968;BME280;46511;53.148;8.204;2023-05-19T03:21:35;102844.06;;;8.17;100.00
48968;BME280;46511;53.148;8.204;2023-05-19T03:24:06;102842.28;;;8.19;100.00
48968;BME280;46511;53.148;8.204;2023-05-19T03:26:38;102844.06;;;8.17;100.00
48968;BME280;46511;53.148;8.204;2023-05-19T03:29:09;102847.63;;;8.13;100.00
48968;BME280;46511;53.148;8.204;2023-05-19T03:31:40;102846.81;;;8.10;100.00
48968;BME280;46511;53.148;8.204;2023-05-19T03:34:12;102839.75;;;8.10;100.00
48968;BME280;46511;53.148;8.204;2023-05-19T03:36:43;102842.44;;;8.07;100.00
48968;BME280;46511;53.148;8.204;2023-05-19T03:39:15;102841.56;;;8.07;100.00
48968;BME280;46511;53.148;8.204;2023-05-19T03:41:47;102843.34;;;8.05;100.00
48968;BME280;46511;53.148;8.204;2023-05-19T03:44:18;102845.13;;;8.02;100.00
48968;BME280;46511;53.148;8.204;2023-05-19T03:46:49;102845.13;;;8.02;100.00
48968;BME280;46511;53.148;8.204;2023-05-19T03:49:20;102843.34;;;8.05;100.00
48968;BME280;46511;53.148;8.204;2023-05-19T03:51:52;102853.94;;;8.06;100.00
48968;BME280;46511;53.148;8.204;2023-05-19T03:54:23;102849.50;;;8.08;100.00
48968;BME280;46511;53.148;8.204;2023-05-19T03:56:54;102850.34;;;8.10;100.00
48968;BME280;46511;53.148;8.204;2023-05-19T03:59:26;102852.91;;;8.16;100.00
48968;BME280;46511;53.148;8.204;2023-05-19T04:01:53;102858.16;;;8.19;100.00
48968;BME280;46511;53.148;8.204;2023-05-19T04:04:24;102842.22;;;8.22;100.00
48968;BME280;46511;53.148;8.204;2023-05-19T04:06:56;102847.50;;;8.25;100.00
48968;BME280;46511;53.148;8.204;2023-05-19T04:09:27;102847.47;;;8.27;100.00
48968;BME280;46511;53.148;8.204;2023-05-19T04:11:54;102847.28;;;8.41;100.00
48968;BME280;46511;53.148;8.204;2023-05-19T04:14:25;102857.78;;;8.47;100.00
48968;BME280;46511;53.148;8.204;2023-05-19T04:16:51;102846.22;;;8.52;100.00
48968;BME280;46511;53.148;8.204;2023-05-19T04:19:24;102847.00;;;8.59;100.00
48968;BME280;46511;53.148;8.204;2023-05-19T04:21:55;102850.56;;;8.58;100.00
48968;BME280;46511;53.148;8.204;2023-05-19T04:24:26;102849.56;;;8.65;100.00
48968;BME280;46511;53.148;8.204;2023-05-19T04:26:58;102848.66;;;8.66;100.00
48968;BME280;46511;53.148;8.204;2023-05-19T04:29:32;102853.78;;;8.77;100.00
48968;BME280;46511;53.148;8.204;2023-05-19T04:32:05;102852.84;;;8.82;100.00
48968;BME280;46511;53.148;8.204;2023-05-19T04:34:37;102855.38;;;8.87;100.00
48968;BME280;46511;53.148;8.204;2023-05-19T04:37:13;102857.00;;;8.96;100.00
48968;BME280;46511;53.148;8.204;2023-05-19T04:39:46;102848.81;;;9.09;100.00
48968;BME280;46511;53.148;8.204;2023-05-19T04:42:13;102853.00;;;9.23;100.00
48968;BME280;46511;53.148;8.204;2023-05-19T04:44:44;102851.22;;;9.23;100.00
48968;BME280;46511;53.148;8.204;2023-05-19T04:47:16;102852.88;;;9.30;100.00
48968;BME280;46511;53.148;8.204;2023-05-19T04:49:48;102851.00;;;9.35;100.00
48968;BME280;46511;53.148;8.204;2023-05-19T04:52:19;102845.94;;;9.23;100.00
48968;BME280;46511;53.148;8.204;2023-05-19T04:54:47;102853.41;;;9.49;100.00
48968;BME280;46511;53.148;8.204;2023-05-19T04:57:18;102855.09;;;9.53;100.00
48968;BME280;46511;53.148;8.204;2023-05-19T04:59:49;102850.91;;;9.85;100.00
48968;BME280;46511;53.148;8.204;2023-05-19T05:02:22;102844.41;;;9.99;100.00
48968;BME280;46511;53.148;8.204;2023-05-19T05:04:53;102851.97;;;10.18;100.00
48968;BME280;46511;53.148;8.204;2023-05-19T05:07:21;102857.75;;;9.96;100.00
48968;BME280;46511;53.148;8.204;2023-05-19T05:09:53;102842.28;;;10.17;100.00
48968;BME280;46511;53.148;8.204;2023-05-19T05:12:24;102856.38;;;9.79;100.00
48968;BME280;46511;53.148;8.204;2023-05-19T05:14:56;102845.56;;;10.29;100.00
48968;BME280;46511;53.148;8.204;2023-05-19T05:17:27;102850.97;;;10.25;100.00
48968;BME280;46511;53.148;8.204;2023-05-19T05:19:59;102848.44;;;10.57;100.00
48968;BME280;46511;53.148;8.204;2023-05-19T05:22:31;102848.34;;;10.62;100.00
48968;BME280;46511;53.148;8.204;2023-05-19T05:25:03;102847.78;;;10.85;100.00
48968;BME280;46511;53.148;8.204;2023-05-19T05:27:35;102855.25;;;11.05;100.00
48968;BME280;46511;53.148;8.204;2023-05-19T05:30:06;102848.56;;;11.23;100.00
48968;BME280;46511;53.148;8.204;2023-05-19T05:32:38;102853.06;;;11.21;100.00
48968;BME280;46511;53.148;8.204;2023-05-19T05:35:05;102848.72;;;11.16;100.00
48968;BME280;46511;53.148;8.204;2023-05-19T05:37:36;102851.41;;;11.49;100.00
48968;BME280;46511;53.148;8.204;2023-05-19T05:40:07;102854.47;;;11.66;100.00
48968;BME280;46511;53.148;8.204;2023-05-19T05:42:34;102842.16;;;11.62;100.00
48968;BME280;46511;53.148;8.204;2023-05-19T05:45:05;102842.00;;;11.37;100.00
48968;BME280;46511;53.148;8.204;2023-05-19T05:47:37;102847.75;;;11.86;100.00
48968;BME280;46511;53.148;8.204;2023-05-19T05:50:09;102841.31;;;12.22;100.00
48968;BME280;46511;53.148;8.204;2023-05-19T05:52:44;102840.19;;;12.29;100.00
48968;BME280;46511;53.148;8.204;2023-05-19T05:55:17;102835.16;;;12.48;100.00
48968;BME280;46511;53.148;8.204;2023-05-19T05:57:48;102825.66;;;12.40;100.00
48968;BME280;46511;53.148;8.204;2023-05-19T06:00:20;102830.50;;;13.08;100.00
48968;BME280;46511;53.148;8.204;2023-05-19T06:02:52;102829.41;;;13.13;100.00
48968;BME280;46511;53.148;8.204;2023-05-19T06:05:23;102823.41;;;13.07;100.00
48968;BME280;46511;53.148;8.204;2023-05-19T06:07:55;102820.03;;;13.02;100.00
48968;BME280;46511;53.148;8.204;2023-05-19T06:10:27;102815.69;;;13.74;100.00
48968;BME280;46511;53.148;8.204;2023-05-19T06:12:58;102814.53;;;14.92;100.00
48968;BME280;46511;53.148;8.204;2023-05-19T06:15:29;102810.19;;;16.45;94.29
48968;BME280;46511;53.148;8.204;2023-05-19T06:18:01;102810.50;;;17.44;85.50
48968;BME280;46511;53.148;8.204;2023-05-19T06:20:27;102809.09;;;17.70;80.22
48968;BME280;46511;53.148;8.204;2023-05-19T06:22:59;102809.78;;;18.38;72.95
48968;BME280;46511;53.148;8.204;2023-05-19T06:25:31;102808.69;;;18.56;64.79
48968;BME280;46511;53.148;8.204;2023-05-19T06:28:02;102812.19;;;19.63;68.50
48968;BME280;46511;53.148;8.204;2023-05-19T06:30:33;102815.41;;;20.79;59.57
48968;BME280;46511;53.148;8.204;2023-05-19T06:33:06;102817.09;;;22.09;54.13
48968;BME280;46511;53.148;8.204;2023-05-19T06:35:32;102810.88;;;22.43;50.35
48968;BME280;46511;53.148;8.204;2023-05-19T06:38:04;102813.16;;;22.49;47.85
48968;BME280;46511;53.148;8.204;2023-05-19T06:40:35;102817.53;;;23.22;49.16
48968;BME280;46511;53.148;8.204;2023-05-19T06:43:07;102816.66;;;22.87;47.80
48968;BME280;46511;53.148;8.204;2023-05-19T06:45:33;102805.75;;;22.75;48.28
48968;BME280;46511;53.148;8.204;2023-05-19T06:48:00;102815.75;;;22.27;51.20
48968;BME280;46511;53.148;8.204;2023-05-19T06:50:26;102805.34;;;23.50;46.41
48968;BME280;46511;53.148;8.204;2023-05-19T06:52:58;102802.91;;;23.01;44.04
48968;BME280;46511;53.148;8.204;2023-05-19T06:55:29;102800.31;;;22.40;49.08
48968;BME280;46511;53.148;8.204;2023-05-19T06:58:00;102806.31;;;23.27;45.82
48968;BME280;46511;53.148;8.204;2023-05-19T07:00:32;102806.16;;;21.21;51.36
48968;BME280;46511;53.148;8.204;2023-05-19T07:03:03;102805.50;;;23.02;48.79
48968;BME280;46511;53.148;8.204;2023-05-19T07:05:34;102801.44;;;23.77;49.59
48968;BME280;46511;53.148;8.204;2023-05-19T07:08:06;102809.25;;;24.25;44.27
48968;BME280;46511;53.148;8.204;2023-05-19T07:10:38;102812.78;;;21.17;49.12
48968;BME280;46511;53.148;8.204;2023-05-19T07:13:09;102811.88;;;22.90;50.82
48968;BME280;46511;53.148;8.204;2023-05-19T07:15:40;102807.16;;;25.76;43.21
48968;BME280;46511;53.148;8.204;2023-05-19T07:18:12;102802.16;;;27.27;41.94
48968;BME280;46511;53.148;8.204;2023-05-19T07:20:38;102802.16;;;27.18;39.03
48968;BME280;46511;53.148;8.204;2023-05-19T07:23:09;102805.31;;;26.26;40.43
48968;BME280;46511;53.148;8.204;2023-05-19T07:25:41;102784.59;;;26.14;38.92
48968;BME280;46511;53.148;8.204;2023-05-19T07:28:07;102803.16;;;25.80;41.92
48968;BME280;46511;53.148;8.204;2023-05-19T07:30:38;102800.75;;;28.79;36.66
48968;BME280;46511;53.148;8.204;2023-05-19T07:33:10;102792.81;;;29.97;34.12
48968;BME280;46511;53.148;8.204;2023-05-19T07:35:41;102791.13;;;29.10;34.09
48968;BME280;46511;53.148;8.204;2023-05-19T07:38:12;102795.41;;;28.24;33.96
48968;BME280;46511;53.148;8.204;2023-05-19T07:40:44;102789.50;;;28.99;34.41
48968;BME280;46511;53.148;8.204;2023-05-19T07:43:15;102788.28;;;30.30;32.50
48968;BME280;46511;53.148;8.204;2023-05-19T07:45:46;102785.22;;;32.72;29.65
48968;BME280;46511;53.148;8.204;2023-05-19T07:48:13;102784.84;;;32.21;29.93
48968;BME280;46511;53.148;8.204;2023-05-19T07:50:44;102776.19;;;31.70;29.36
48968;BME280;46511;53.148;8.204;2023-05-19T07:53:16;102784.03;;;29.85;31.08
48968;BME280;46511;53.148;8.204;2023-05-19T07:55:49;102785.69;;;26.52;35.03
48968;BME280;46511;53.148;8.204;2023-05-19T07:58:20;102782.38;;;27.06;34.00
48968;BME280;46511;53.148;8.204;2023-05-19T08:00:52;102779.25;;;29.88;32.10
48968;BME280;46511;53.148;8.204;2023-05-19T08:03:24;102781.69;;;28.87;32.21
48968;BME280;46511;53.148;8.204;2023-05-19T08:05:55;102775.34;;;30.89;30.15
48968;BME280;46511;53.148;8.204;2023-05-19T08:08:27;102783.56;;;31.22;29.21
48968;BME280;46511;53.148;8.204;2023-05-19T08:11:02;102773.47;;;30.74;30.52
48968;BME280;46511;53.148;8.204;2023-05-19T08:13:34;102773.56;;;30.48;30.08
48968;BME280;46511;53.148;8.204;2023-05-19T08:16:05;102777.78;;;32.03;29.23
48968;BME280;46511;53.148;8.204;2023-05-19T08:18:37;102778.28;;;29.63;30.58
48968;BME280;46511;53.148;8.204;2023-05-19T08:21:08;102775.47;;;29.89;31.93
48968;BME280;46511;53.148;8.204;2023-05-19T08:23:39;102773.31;;;29.58;34.24
48968;BME280;46511;53.148;8.204;2023-05-19T08:26:11;102763.94;;;31.33;30.68
48968;BME280;46511;53.148;8.204;2023-05-19T08:28:42;102768.47;;;30.77;29.54
48968;BME280;46511;53.148;8.204;2023-05-19T08:31:14;102765.34;;;27.78;32.57
48968;BME280;46511;53.148;8.204;2023-05-19T08:33:40;102767.91;;;29.82;32.61
48968;BME280;46511;53.148;8.204;2023-05-19T08:36:11;102768.44;;;27.09;33.73
48968;BME280;46511;53.148;8.204;2023-05-19T08:38:38;102769.44;;;27.18;37.18
48968;BME280;46511;53.148;8.204;2023-05-19T08:41:04;102760.38;;;29.84;32.29
48968;BME280;46511;53.148;8.204;2023-05-19T08:43:36;102763.56;;;30.06;31.10
48968;BME280;46511;53.148;8.204;2023-05-19T08:46:07;102753.34;;;30.32;31.78
48968;BME280;46511;53.148;8.204;2023-05-19T08:48:43;102747.88;;;30.32;31.20
48968;BME280;46511;53.148;8.204;2023-05-19T08:51:32;102746.50;;;30.45;30.97
48968;BME280;46511;53.148;8.204;2023-05-19T08:54:15;102751.66;;;27.88;31.81
48968;BME280;46511;53.148;8.204;2023-05-19T08:56:48;102739.47;;;30.34;30.79
48968;BME280;46511;53.148;8.204;2023-05-19T08:59:19;102752.94;;;29.35;30.75
48968;BME280;46511;53.148;8.204;2023-05-19T09:01:47;102739.72;;;28.96;32.45
48968;BME280;46511;53.148;8.204;2023-05-19T09:04:19;102736.00;;;31.77;29.48
48968;BME280;46511;53.148;8.204;2023-05-19T09:06:50;102735.88;;;30.90;30.86
48968;BME280;46511;53.148;8.204;2023-05-19T09:09:17;102731.00;;;31.25;29.25
48968;BME280;46511;53.148;8.204;2023-05-19T09:11:48;102726.63;;;30.75;30.83
48968;BME280;46511;53.148;8.204;2023-05-19T09:14:19;102734.03;;;31.94;28.18
48968;BME280;46511;53.148;8.204;2023-05-19T09:16:52;102726.34;;;32.95;28.25
48968;BME280;46511;53.148;8.204;2023-05-19T09:19:18;102722.19;;;33.44;27.05
48968;BME280;46511;53.148;8.204;2023-05-19T09:22:00;102723.75;;;32.10;28.02
48968;BME280;46511;53.148;8.204;2023-05-19T09:24:35;102723.19;;;34.45;26.69
48968;BME280;46511;53.148;8.204;2023-05-19T09:27:08;102714.00;;;32.54;28.33
48968;BME280;46511;53.148;8.204;2023-05-19T09:29:39;102721.56;;;32.29;27.53
48968;BME280;46511;53.148;8.204;2023-05-19T09:32:11;102710.41;;;33.50;26.18
48968;BME280;46511;53.148;8.204;2023-05-19T09:34:42;102700.97;;;34.53;25.68
48968;BME280;46511;53.148;8.204;2023-05-19T09:37:13;102703.56;;;33.16;25.34
48968;BME280;46511;53.148;8.204;2023-05-19T09:39:46;102706.94;;;35.12;24.13
48968;BME280;46511;53.148;8.204;2023-05-19T09:42:25;102709.13;;;32.79;25.53
48968;BME280;46511;53.148;8.204;2023-05-19T09:44:58;102703.53;;;32.49;25.90
48968;BME280;46511;53.148;8.204;2023-05-19T09:47:34;102706.34;;;33.46;24.55
48968;BME280;46511;53.148;8.204;2023-05-19T09:50:10;102708.47;;;32.08;24.56
48968;BME280;46511;53.148;8.204;2023-05-19T09:52:43;102690.53;;;31.97;26.04
48968;BME280;46511;53.148;8.204;2023-05-19T09:55:11;102694.91;;;32.06;26.57
48968;BME280;46511;53.148;8.204;2023-05-19T09:57:38;102698.09;;;32.18;26.76
48968;BME280;46511;53.148;8.204;2023-05-19T10:00:10;102689.59;;;34.20;24.37
48968;BME280;46511;53.148;8.204;2023-05-19T10:02:44;102698.16;;;29.61;27.69
48968;BME280;46511;53.148;8.204;2023-05-19T10:05:17;102701.31;;;29.40;28.29
48968;BME280;46511;53.148;8.204;2023-05-19T10:07:53;102694.31;;;31.10;27.09
48968;BME280;46511;53.148;8.204;2023-05-19T10:10:25;102692.31;;;30.22;28.22
48968;BME280;46511;53.148;8.204;2023-05-19T10:12:57;102684.78;;;30.40;28.19
48968;BME280;46511;53.148;8.204;2023-05-19T10:15:29;102695.66;;;29.07;27.99
48968;BME280;46511;53.148;8.204;2023-05-19T10:18:01;102690.63;;;32.27;24.72
48968;BME280;46511;53.148;8.204;2023-05-19T10:20:33;102692.38;;;27.71;29.83
48968;BME280;46511;53.148;8.204;2023-05-19T10:23:06;102677.94;;;30.20;27.73
48968;BME280;46511;53.148;8.204;2023-05-19T10:25:37;102686.78;;;27.35;31.73
48968;BME280;46511;53.148;8.204;2023-05-19T10:28:11;102695.38;;;25.37;33.65
48968;BME280;46511;53.148;8.204;2023-05-19T10:30:46;102689.94;;;23.46;36.30
48968;BME280;46511;53.148;8.204;2023-05-19T10:33:21;102677.97;;;24.67;36.02
48968;BME280;46511;53.148;8.204;2023-05-19T10:36:14;102674.22;;;27.79;32.93
48968;BME280;46511;53.148;8.204;2023-05-19T10:39:16;102672.13;;;31.67;27.15
48968;BME280;46511;53.148;8.204;2023-05-19T10:42:03;102663.78;;;33.04;22.69
48968;BME280;46511;53.148;8.204;2023-05-19T10:47:41;102663.91;;;31.19;23.37
48968;BME280;46511;53.148;8.204;2023-05-19T10:50:14;102641.31;;;34.52;21.06
48968;BME280;46511;53.148;8.204;2023-05-19T10:52:51;102648.25;;;31.36;23.95
48968;BME280;46511;53.148;8.204;2023-05-19T10:55:43;102660.53;;;31.57;24.09
48968;BME280;46511;53.148;8.204;2023-05-19T11:01:16;102650.56;;;31.87;21.17
48968;BME280;46511;53.148;8.204;2023-05-19T11:03:54;102663.66;;;29.42;24.00
48968;BME280;46511;53.148;8.204;2023-05-19T11:06:33;102651.91;;;30.32;23.87
48968;BME280;46511;53.148;8.204;2023-05-19T11:14:18;102650.88;;;32.15;22.96
48968;BME280;46511;53.148;8.204;2023-05-19T11:17:00;102648.31;;;33.69;21.41
48968;BME280;46511;53.148;8.204;2023-05-19T11:19:33;102645.81;;;32.79;21.53
48968;BME280;46511;53.148;8.204;2023-05-19T11:22:12;102639.13;;;28.90;25.20
48968;BME280;46511;53.148;8.204;2023-05-19T11:24:42;102645.19;;;30.51;24.60
48968;BME280;46511;53.148;8.204;2023-05-19T11:29:50;102640.53;;;30.60;24.66
48968;BME280;46511;53.148;8.204;2023-05-19T11:32:24;102638.41;;;31.50;24.29
48968;BME280;46511;53.148;8.204;2023-05-19T11:34:52;102630.16;;;33.38;23.55
48968;BME280;46511;53.148;8.204;2023-05-19T11:37:25;102634.25;;;31.23;23.18
48968;BME280;46511;53.148;8.204;2023-05-19T11:40:01;102633.25;;;33.50;21.54
48968;BME280;46511;53.148;8.204;2023-05-19T11:42:37;102622.09;;;35.47;19.30
48968;BME280;46511;53.148;8.204;2023-05-19T11:45:08;102635.69;;;33.96;21.45
48968;BME280;46511;53.148;8.204;2023-05-19T11:47:40;102621.66;;;34.68;20.60
48968;BME280;46511;53.148;8.204;2023-05-19T11:50:11;102629.25;;;30.38;22.08
48968;BME280;46511;53.148;8.204;2023-05-19T11:52:43;102637.56;;;26.80;25.71
48968;BME280;46511;53.148;8.204;2023-05-19T11:55:16;102636.38;;;26.36;27.62
48968;BME280;46511;53.148;8.204;2023-05-19T12:00:30;102631.22;;;29.63;24.26
48968;BME280;46511;53.148;8.204;2023-05-19T12:03:09;102636.78;;;30.61;23.39
48968;BME280;46511;53.148;8.204;2023-05-19T12:05:44;102631.50;;;30.43;23.40
48968;BME280;46511;53.148;8.204;2023-05-19T12:08:17;102621.75;;;30.32;23.36
48968;BME280;46511;53.148;8.204;2023-05-19T12:10:49;102618.59;;;30.76;22.57
48968;BME280;46511;53.148;8.204;2023-05-19T12:13:22;102607.69;;;32.90;21.69
48968;BME280;46511;53.148;8.204;2023-05-19T12:15:57;102603.66;;;31.26;22.29
48968;BME280;46511;53.148;8.204;2023-05-19T12:18:29;102614.50;;;29.82;23.90
48968;BME280;46511;53.148;8.204;2023-05-19T12:21:03;102615.72;;;30.53;24.01
48968;BME280;46511;53.148;8.204;2023-05-19T12:23:35;102611.31;;;32.38;23.57
48968;BME280;46511;53.148;8.204;2023-05-19T12:26:07;102609.06;;;34.31;20.49
48968;BME280;46511;53.148;8.204;2023-05-19T12:28:34;102602.66;;;33.45;19.63
48968;BME280;46511;53.148;8.204;2023-05-19T12:31:06;102612.56;;;33.24;21.30
48968;BME280;46511;53.148;8.204;2023-05-19T12:33:37;102591.94;;;34.14;20.67
48968;BME280;46511;53.148;8.204;2023-05-19T12:36:04;102604.81;;;33.86;19.94
48968;BME280;46511;53.148;8.204;2023-05-19T12:38:36;102603.34;;;33.32;19.68
48968;BME280;46511;53.148;8.204;2023-05-19T12:41:12;102595.50;;;33.87;20.17
48968;BME280;46511;53.148;8.204;2023-05-19T12:43:39;102600.59;;;33.47;21.22
48968;BME280;46511;53.148;8.204;2023-05-19T12:46:11;102595.84;;;36.44;18.50
48968;BME280;46511;53.148;8.204;2023-05-19T12:48:43;102592.22;;;33.98;20.07
48968;BME280;46511;53.148;8.204;2023-05-19T12:51:17;102599.69;;;33.10;19.65
48968;BME280;46511;53.148;8.204;2023-05-19T12:53:44;102598.22;;;31.49;21.49
48968;BME280;46511;53.148;8.204;2023-05-19T12:56:16;102596.84;;;29.18;23.67
48968;BME280;46511;53.148;8.204;2023-05-19T12:58:51;102586.00;;;32.20;21.49
48968;BME280;46511;53.148;8.204;2023-05-19T13:01:19;102591.94;;;28.62;23.69
48968;BME280;46511;53.148;8.204;2023-05-19T13:03:52;102580.16;;;27.19;25.72
48968;BME280;46511;53.148;8.204;2023-05-19T13:06:24;102592.31;;;26.60;26.53
48968;BME280;46511;53.148;8.204;2023-05-19T13:08:55;102596.25;;;26.09;26.55
48968;BME280;46511;53.148;8.204;2023-05-19T13:11:27;102588.34;;;27.19;26.61
48968;BME280;46511;53.148;8.204;2023-05-19T13:13:54;102575.97;;;27.87;24.93
48968;BME280;46511;53.148;8.204;2023-05-19T13:16:25;102582.19;;;27.17;27.01
48968;BME280;46511;53.148;8.204;2023-05-19T13:18:52;102584.47;;;28.02;25.86
48968;BME280;46511;53.148;8.204;2023-05-19T13:21:18;102579.91;;;28.81;23.84
48968;BME280;46511;53.148;8.204;2023-05-19T13:23:49;102576.59;;;31.23;23.39
48968;BME280;46511;53.148;8.204;2023-05-19T13:26:21;102565.84;;;29.84;23.23
48968;BME280;46511;53.148;8.204;2023-05-19T13:28:53;102579.81;;;27.77;25.26
48968;BME280;46511;53.148;8.204;2023-05-19T13:31:24;102582.94;;;27.54;25.58
48968;BME280;46511;53.148;8.204;2023-05-19T13:33:56;102581.84;;;28.36;24.97
48968;BME280;46511;53.148;8.204;2023-05-19T13:36:27;102572.94;;;26.53;27.38
48968;BME280;46511;53.148;8.204;2023-05-19T13:38:58;102573.06;;;24.86;28.23